Time;durP1;ratioP1;P1;durP2;ratioP2;P2;SDS_P1;SDS_P2;PMS_P1;PMS_P2;Temp;Humidity;BMP_temperature;BMP_pressure;BME280_temperature;BME280_humidity;BME280_pressure;Samples;Min_cycle;Max_cycle;Signal;HPM_P1;HPM_P2
2023/09/07 00:01:54;;;;;;;6.22;5.15;;;21.60;99.90;;;;;;5055508;28;20211;-50
2023/09/07 00:04:21;;;;;;;7.28;5.18;;;21.60;99.90;;;;;;5055631;28;20606;-50
2023/09/07 00:06:46;;;;;;;5.85;5.07;;;21.60;99.90;;;;;;5055617;28;20671;-51
2023/09/07 00:09:13;;;;;;;7.18;5.63;;;21.50;99.90;;;;;;5054290;28;20171;-53
2023/09/07 00:11:38;;;;;;;6.50;5.72;;;21.50;99.90;;;;;;5055379;28;20186;-51
2023/09/07 00:14:04;;;;;;;6.10;5.07;;;21.30;99.90;;;;;;5055281;28;20172;-49
2023/09/07 00:16:38;;;;;;;8.05;5.00;;;21.40;99.90;;;;;;5055818;28;20175;-53
2023/09/07 00:19:04;;;;;;;7.97;5.35;;;21.40;99.90;;;;;;5055452;28;20176;-53
2023/09/07 00:21:30;;;;;;;7.80;5.47;;;21.30;99.90;;;;;;5055208;28;20280;-53
2023/09/07 00:23:56;;;;;;;6.20;5.30;;;21.20;99.90;;;;;;5055276;28;20175;-53
2023/09/07 00:26:21;;;;;;;8.68;5.18;;;21.20;99.90;;;;;;5055134;28;20175;-53
2023/09/07 00:28:47;;;;;;;5.20;4.68;;;21.10;99.90;;;;;;5055335;28;20255;-51
2023/09/07 00:31:13;;;;;;;7.40;5.15;;;21.10;99.90;;;;;;5055026;28;20179;-54
2023/09/07 00:33:38;;;;;;;7.45;5.20;;;21.10;99.90;;;;;;5055198;28;20218;-52
2023/09/07 00:36:04;;;;;;;7.93;5.38;;;21.00;99.90;;;;;;5055214;28;20180;-52
2023/09/07 00:38:30;;;;;;;9.25;5.65;;;21.00;99.90;;;;;;5054943;28;20305;-52
2023/09/07 00:40:56;;;;;;;7.40;5.45;;;20.90;99.90;;;;;;5054822;28;20286;-52
2023/09/07 00:43:22;;;;;;;8.48;6.05;;;21.00;99.90;;;;;;5055061;28;20172;-51
2023/09/07 00:45:47;;;;;;;5.68;5.13;;;20.80;99.90;;;;;;5055030;28;20172;-52
2023/09/07 00:48:15;;;;;;;7.70;5.90;;;20.90;99.90;;;;;;5054897;28;20560;-52
2023/09/07 00:50:42;;;;;;;10.35;5.88;;;20.80;99.90;;;;;;5054741;28;20188;-52
2023/09/07 00:53:08;;;;;;;6.80;6.03;;;20.70;99.90;;;;;;5054736;28;20624;-52
2023/09/07 00:55:35;;;;;;;6.55;5.22;;;20.70;99.90;;;;;;5054566;28;20194;-51
2023/09/07 00:58:03;;;;;;;6.97;5.72;;;20.70;99.90;;;;;;5054584;28;20168;-53
2023/09/07 01:00:29;;;;;;;8.48;5.38;;;20.70;99.90;;;;;;5054498;28;20210;-49
2023/09/07 01:02:55;;;;;;;9.23;5.68;;;20.60;99.90;;;;;;5054502;28;20179;-53
2023/09/07 01:05:29;;;;;;;5.72;5.22;;;20.70;99.90;;;;;;5054537;28;20237;-53
2023/09/07 01:08:03;;;;;;;6.28;5.68;;;20.60;99.90;;;;;;5054480;28;20650;-54
2023/09/07 01:10:29;;;;;;;6.65;5.78;;;20.50;99.90;;;;;;5054296;28;20171;-53
2023/09/07 01:12:54;;;;;;;7.90;5.75;;;20.50;99.90;;;;;;5054408;28;20173;-53
2023/09/07 01:15:20;;;;;;;7.43;6.00;;;20.20;99.90;;;;;;5054634;28;20180;-52
2023/09/07 01:17:46;;;;;;;7.20;5.82;;;20.20;99.90;;;;;;5054132;28;20582;-51
2023/09/07 01:20:13;;;;;;;8.63;6.30;;;20.30;99.90;;;;;;5054147;28;20276;-54
2023/09/07 01:22:40;;;;;;;7.45;5.93;;;20.20;99.90;;;;;;5053973;28;20175;-51
2023/09/07 01:25:07;;;;;;;8.23;6.03;;;20.20;99.90;;;;;;5054218;28;20180;-52
2023/09/07 01:27:33;;;;;;;7.22;5.55;;;20.20;99.90;;;;;;5054670;28;20167;-52
2023/09/07 01:29:59;;;;;;;7.78;6.13;;;20.20;99.90;;;;;;5054072;28;20186;-53
2023/09/07 01:32:26;;;;;;;8.88;6.22;;;20.20;99.90;;;;;;5053988;28;20167;-52
2023/09/07 01:34:56;;;;;;;7.45;6.03;;;20.20;99.90;;;;;;5053903;28;20179;-53
2023/09/07 01:37:22;;;;;;;6.25;5.65;;;20.10;99.90;;;;;;5053846;28;20609;-51
2023/09/07 01:39:48;;;;;;;8.13;6.38;;;20.10;99.90;;;;;;5054008;28;20194;-51
2023/09/07 01:42:14;;;;;;;7.22;6.47;;;20.10;99.90;;;;;;5053732;28;20207;-53
2023/09/07 01:44:40;;;;;;;6.72;5.97;;;19.90;99.90;;;;;;5053865;28;20234;-51
2023/09/07 01:47:06;;;;;;;6.72;6.10;;;19.90;99.90;;;;;;5053714;28;20249;-53
2023/09/07 01:49:32;;;;;;;8.60;6.30;;;19.80;99.90;;;;;;5053753;28;20529;-51
2023/09/07 01:51:57;;;;;;;7.13;6.05;;;19.70;99.90;;;;;;5053520;28;20279;-53
2023/09/07 01:54:23;;;;;;;7.47;6.30;;;19.80;99.90;;;;;;5053724;28;20183;-49
2023/09/07 01:56:48;;;;;;;9.52;6.35;;;19.80;99.90;;;;;;5053584;28;20199;-53
2023/09/07 01:59:14;;;;;;;8.80;6.45;;;19.60;99.90;;;;;;5053425;28;20262;-52
2023/09/07 02:01:40;;;;;;;6.72;6.10;;;19.50;99.90;;;;;;5053421;28;20234;-52
2023/09/07 02:04:05;;;;;;;8.40;6.40;;;19.40;99.90;;;;;;5053382;28;20274;-54
2023/09/07 02:06:31;;;;;;;6.60;6.00;;;19.40;99.90;;;;;;5052126;28;20243;-53
2023/09/07 02:08:57;;;;;;;7.07;6.38;;;19.40;99.90;;;;;;5053514;28;20694;-53
2023/09/07 02:11:23;;;;;;;7.18;6.47;;;19.40;99.90;;;;;;5053589;28;20192;-52
2023/09/07 02:13:48;;;;;;;7.97;5.95;;;19.40;99.90;;;;;;5053391;28;20171;-53
2023/09/07 02:16:15;;;;;;;6.80;6.10;;;19.40;99.90;;;;;;5052973;28;20198;-51
2023/09/07 02:18:43;;;;;;;8.55;6.60;;;19.30;99.90;;;;;;5053251;28;20324;-52
2023/09/07 02:21:09;;;;;;;7.40;6.53;;;19.30;99.90;;;;;;5053306;28;20226;-52
2023/09/07 02:23:37;;;;;;;7.40;6.32;;;19.30;99.90;;;;;;5053432;28;20179;-51
2023/09/07 02:26:03;;;;;;;7.00;6.25;;;19.30;99.90;;;;;;5053084;28;20612;-53
2023/09/07 02:28:29;;;;;;;7.88;6.63;;;19.20;99.90;;;;;;5053155;28;20171;-52
2023/09/07 02:31:02;;;;;;;6.93;6.22;;;19.20;99.90;;;;;;5053201;28;20214;-50
2023/09/07 02:33:28;;;;;;;6.88;6.28;;;19.20;99.90;;;;;;5053144;28;20233;-53
2023/09/07 02:35:54;;;;;;;11.23;6.95;;;19.20;99.90;;;;;;5052953;28;20575;-50
2023/09/07 02:38:19;;;;;;;7.82;6.35;;;19.20;99.90;;;;;;5053056;28;20229;-50
2023/09/07 02:40:46;;;;;;;7.68;6.97;;;19.20;99.90;;;;;;5053121;28;20366;-52
2023/09/07 02:43:12;;;;;;;7.75;6.10;;;19.10;99.90;;;;;;5053076;28;20652;-49
2023/09/07 02:45:38;;;;;;;12.25;6.95;;;19.00;99.90;;;;;;5053028;28;20199;-49
2023/09/07 02:48:05;;;;;;;7.82;6.53;;;18.90;99.90;;;;;;5052960;28;20505;-52
2023/09/07 02:50:33;;;;;;;7.75;6.88;;;18.90;99.90;;;;;;5052781;28;20178;-53
2023/09/07 02:53:00;;;;;;;8.48;6.75;;;18.90;99.90;;;;;;5052883;28;20202;-52
2023/09/07 02:55:29;;;;;;;8.18;6.80;;;18.90;99.90;;;;;;5053057;28;20585;-52
2023/09/07 02:57:57;;;;;;;7.40;6.78;;;18.80;99.90;;;;;;5053147;28;20167;-51
2023/09/07 03:00:23;;;;;;;8.23;6.70;;;18.80;99.90;;;;;;5052791;28;20238;-53
2023/09/07 03:02:49;;;;;;;7.82;6.80;;;19.00;99.90;;;;;;5052794;28;20260;-52
2023/09/07 03:05:16;;;;;;;7.43;6.63;;;19.00;99.90;;;;;;5052686;28;20175;-53
2023/09/07 03:07:41;;;;;;;7.10;6.40;;;18.90;99.90;;;;;;5052753;28;20739;-52
2023/09/07 03:10:07;;;;;;;8.82;6.90;;;19.00;99.90;;;;;;5052832;28;20187;-52
2023/09/07 03:12:34;;;;;;;7.75;6.80;;;19.00;99.90;;;;;;5052703;28;20179;-50
2023/09/07 03:15:03;;;;;;;7.07;6.38;;;18.80;99.90;;;;;;5052675;28;20172;-52
2023/09/07 03:17:29;;;;;;;6.63;5.95;;;18.90;99.90;;;;;;5052631;28;20271;-51
2023/09/07 03:19:55;;;;;;;7.53;6.70;;;18.70;99.90;;;;;;5052445;28;20247;-52
2023/09/07 03:22:21;;;;;;;8.90;6.95;;;18.70;99.90;;;;;;5052872;28;20215;-53
2023/09/07 03:24:46;;;;;;;7.90;7.00;;;18.60;99.90;;;;;;5052688;28;20222;-53
2023/09/07 03:27:12;;;;;;;7.65;6.32;;;18.70;99.90;;;;;;5052657;28;20210;-54
2023/09/07 03:29:38;;;;;;;7.15;6.43;;;18.70;99.90;;;;;;5054917;28;20225;-52
2023/09/07 03:32:04;;;;;;;9.93;6.95;;;18.60;99.90;;;;;;5056026;28;20183;-53
2023/09/07 03:34:30;;;;;;;8.68;6.70;;;18.60;99.90;;;;;;5056365;28;20636;-53
2023/09/07 03:36:55;;;;;;;7.43;6.72;;;18.50;99.90;;;;;;5056479;28;20207;-53
2023/09/07 03:39:23;;;;;;;7.80;7.00;;;18.40;99.90;;;;;;5056268;28;20186;-52
2023/09/07 03:41:49;;;;;;;8.30;7.45;;;18.50;99.90;;;;;;5056276;28;20230;-54
2023/09/07 03:44:15;;;;;;;7.82;7.07;;;18.30;99.90;;;;;;5056094;28;20537;-53
2023/09/07 03:46:41;;;;;;;7.72;7.03;;;18.40;99.90;;;;;;5055870;28;20270;-54
2023/09/07 03:49:07;;;;;;;8.32;7.53;;;18.40;99.90;;;;;;5056007;28;20176;-52
2023/09/07 03:51:33;;;;;;;9.00;7.68;;;18.40;99.90;;;;;;5056189;28;20190;-53
2023/09/07 03:53:59;;;;;;;9.00;7.15;;;18.40;99.90;;;;;;5055978;28;20176;-53
2023/09/07 03:56:25;;;;;;;9.38;7.22;;;18.40;99.90;;;;;;5055907;28;20178;-52
2023/09/07 03:58:50;;;;;;;8.20;7.50;;;18.30;99.90;;;;;;5055693;28;20172;-54
2023/09/07 04:01:16;;;;;;;10.13;7.72;;;18.20;99.90;;;;;;5055567;28;20298;-53
2023/09/07 04:03:45;;;;;;;8.00;7.20;;;18.30;99.90;;;;;;5055833;28;20250;-53
2023/09/07 04:06:11;;;;;;;8.60;7.80;;;18.20;99.90;;;;;;5055810;28;20258;-51
2023/09/07 04:08:37;;;;;;;8.15;7.28;;;18.40;99.90;;;;;;5055674;28;20210;-54
2023/09/07 04:11:05;;;;;;;8.30;7.50;;;18.40;99.90;;;;;;5055841;28;20234;-52
2023/09/07 04:13:32;;;;;;;8.30;7.50;;;18.40;99.90;;;;;;5055749;28;20179;-52
2023/09/07 04:15:58;;;;;;;7.65;6.93;;;18.40;99.90;;;;;;5055347;28;20175;-53
2023/09/07 04:18:23;;;;;;;8.60;7.60;;;18.40;99.90;;;;;;5055520;28;20254;-53
2023/09/07 04:20:49;;;;;;;10.77;7.60;;;18.40;99.90;;;;;;5055191;28;20259;-53
2023/09/07 04:23:15;;;;;;;9.23;7.82;;;18.40;99.90;;;;;;5055434;28;20175;-53
2023/09/07 04:25:40;;;;;;;8.30;7.50;;;18.30;99.90;;;;;;5055298;28;20262;-51
2023/09/07 04:28:07;;;;;;;7.65;6.85;;;18.20;99.90;;;;;;5055195;28;20218;-54
2023/09/07 04:30:39;;;;;;;8.32;7.40;;;18.30;99.90;;;;;;5055061;28;20183;-50
2023/09/07 04:33:04;;;;;;;8.70;7.78;;;18.20;99.90;;;;;;5055216;28;20228;-54
2023/09/07 04:35:33;;;;;;;9.85;7.18;;;18.20;99.90;;;;;;5055232;28;20175;-52
2023/09/07 04:37:59;;;;;;;8.38;7.50;;;18.20;99.90;;;;;;5055158;28;20174;-52
2023/09/07 04:40:25;;;;;;;8.90;7.97;;;18.20;99.90;;;;;;5054642;28;20676;-51
2023/09/07 04:42:51;;;;;;;8.90;7.68;;;18.20;99.90;;;;;;5054077;28;20167;-52
2023/09/07 04:45:17;;;;;;;7.70;7.00;;;18.00;99.90;;;;;;5054765;28;20199;-52
2023/09/07 04:47:43;;;;;;;10.65;8.13;;;17.90;99.90;;;;;;5054938;28;20187;-52
2023/09/07 04:50:09;;;;;;;8.88;7.97;;;18.00;99.90;;;;;;5054898;28;20175;-53
2023/09/07 04:52:35;;;;;;;8.45;7.65;;;17.90;99.90;;;;;;5054934;28;20259;-53
2023/09/07 04:55:01;;;;;;;8.75;7.88;;;17.90;99.90;;;;;;5054913;28;20203;-51
2023/09/07 04:57:27;;;;;;;9.55;8.05;;;17.80;99.90;;;;;;5054674;28;20193;-52
2023/09/07 04:59:53;;;;;;;8.77;7.97;;;17.90;99.90;;;;;;5054504;28;20643;-53
2023/09/07 05:02:18;;;;;;;8.18;7.30;;;17.80;99.90;;;;;;5054551;28;20269;-51
2023/09/07 05:04:45;;;;;;;8.93;8.00;;;17.80;99.90;;;;;;5054401;28;20187;-52
2023/09/07 05:07:10;;;;;;;8.95;8.15;;;17.90;99.90;;;;;;5054556;28;20175;-52
2023/09/07 05:09:36;;;;;;;8.82;8.00;;;17.90;99.90;;;;;;5054364;28;20198;-52
2023/09/07 05:12:02;;;;;;;8.70;7.82;;;17.90;99.90;;;;;;5054402;28;20633;-50
2023/09/07 05:14:29;;;;;;;10.43;7.68;;;18.00;99.90;;;;;;5054130;28;20190;-52
2023/09/07 05:16:56;;;;;;;10.65;8.15;;;18.00;99.90;;;;;;5054417;28;20533;-51
2023/09/07 05:19:22;;;;;;;8.00;7.20;;;18.00;99.90;;;;;;5054096;28;20199;-52
2023/09/07 05:21:47;;;;;;;10.98;8.05;;;18.10;99.90;;;;;;5054206;28;20210;-53
2023/09/07 05:24:15;;;;;;;9.68;7.75;;;18.10;99.90;;;;;;5054120;28;20186;-52
2023/09/07 05:26:41;;;;;;;10.77;7.97;;;18.20;99.90;;;;;;5053969;28;20180;-50
2023/09/07 05:29:07;;;;;;;10.30;8.10;;;18.20;99.90;;;;;;5053904;28;20644;-51
2023/09/07 05:31:33;;;;;;;8.90;8.00;;;18.30;99.90;;;;;;5054083;28;20252;-53
2023/09/07 05:33:58;;;;;;;8.70;7.80;;;18.30;99.90;;;;;;5054009;28;20179;-52
2023/09/07 05:36:24;;;;;;;8.88;8.00;;;18.20;99.90;;;;;;5053961;28;20171;-49
2023/09/07 05:38:49;;;;;;;8.55;7.43;;;18.30;99.90;;;;;;5053863;28;20715;-50
2023/09/07 05:41:15;;;;;;;8.70;7.82;;;18.20;99.90;;;;;;5053761;28;20211;-51
2023/09/07 05:43:41;;;;;;;8.50;7.65;;;18.30;99.90;;;;;;5053548;28;20683;-49
2023/09/07 05:46:06;;;;;;;8.48;7.65;;;18.30;99.90;;;;;;5053694;28;20203;-53
2023/09/07 05:48:32;;;;;;;10.32;8.05;;;18.30;99.90;;;;;;5053802;28;20536;-52
2023/09/07 05:50:58;;;;;;;10.60;8.35;;;18.40;99.90;;;;;;5053213;28;20584;-52
2023/09/07 05:53:24;;;;;;;8.65;7.53;;;18.60;99.90;;;;;;5053461;28;20262;-49
2023/09/07 05:55:51;;;;;;;10.30;7.90;;;18.60;99.90;;;;;;5053489;28;20179;-53
2023/09/07 05:58:16;;;;;;;8.95;8.05;;;18.60;99.90;;;;;;5053361;28;20630;-53
2023/09/07 06:00:43;;;;;;;9.57;8.07;;;18.70;99.90;;;;;;5053579;28;20294;-53
2023/09/07 06:03:09;;;;;;;8.63;7.82;;;18.80;99.90;;;;;;5053338;28;20624;-52
2023/09/07 06:05:36;;;;;;;8.98;7.72;;;18.80;99.90;;;;;;5053504;28;20175;-51
2023/09/07 06:08:02;;;;;;;9.73;8.00;;;19.00;99.90;;;;;;5053429;28;20183;-53
2023/09/07 06:10:29;;;;;;;8.48;7.65;;;19.00;99.90;;;;;;5053363;28;20228;-53
2023/09/07 06:12:55;;;;;;;8.50;7.35;;;19.30;99.90;;;;;;5053207;28;20651;-51
2023/09/07 06:15:21;;;;;;;9.98;8.07;;;19.50;99.90;;;;;;5053504;28;20206;-49
2023/09/07 06:17:46;;;;;;;10.52;8.10;;;19.60;99.90;;;;;;5053405;28;20172;-52
2023/09/07 06:20:12;;;;;;;12.18;8.48;;;19.70;99.90;;;;;;5052984;28;20235;-50
2023/09/07 06:22:39;;;;;;;8.52;7.28;;;19.90;99.90;;;;;;5053209;28;20203;-53
2023/09/07 06:25:05;;;;;;;9.23;7.75;;;19.90;99.90;;;;;;5053233;28;20598;-53
2023/09/07 06:27:31;;;;;;;10.80;7.68;;;20.10;99.90;;;;;;5053001;28;20636;-52
2023/09/07 06:29:56;;;;;;;9.27;8.30;;;20.10;99.90;;;;;;5053285;28;20538;-54
2023/09/07 06:32:22;;;;;;;8.80;7.88;;;20.20;99.90;;;;;;5053186;28;20258;-49
2023/09/07 06:34:48;;;;;;;11.70;8.38;;;20.00;99.90;;;;;;5053132;28;20171;-53
2023/09/07 06:37:13;;;;;;;9.50;7.93;;;19.90;99.90;;;;;;5053117;28;20178;-50
2023/09/07 06:39:42;;;;;;;10.45;8.57;;;19.90;99.90;;;;;;5053214;28;20211;-53
2023/09/07 06:42:09;;;;;;;8.68;7.82;;;20.00;99.90;;;;;;5052744;28;20282;-53
2023/09/07 06:44:35;;;;;;;9.00;7.88;;;20.10;99.90;;;;;;5053241;28;20592;-52
2023/09/07 06:47:00;;;;;;;10.50;8.25;;;20.20;99.90;;;;;;5053126;28;20175;-53
2023/09/07 06:49:29;;;;;;;11.80;8.00;;;20.20;99.90;;;;;;5053081;28;20683;-52
2023/09/07 06:51:57;;;;;;;11.48;8.10;;;20.20;99.90;;;;;;5052946;28;20644;-51
2023/09/07 06:54:23;;;;;;;11.50;8.60;;;20.30;99.90;;;;;;5052848;28;20262;-52
2023/09/07 06:56:49;;;;;;;10.63;8.27;;;20.30;99.90;;;;;;5053098;28;20306;-52
2023/09/07 06:59:14;;;;;;;11.23;8.07;;;20.40;99.90;;;;;;5052964;28;20212;-51
2023/09/07 07:01:40;;;;;;;10.98;8.05;;;20.40;99.90;;;;;;5052965;28;20211;-51
2023/09/07 07:04:06;;;;;;;13.10;8.13;;;20.40;99.90;;;;;;5056129;28;20180;-51
2023/09/07 07:06:32;;;;;;;16.52;8.27;;;20.60;99.90;;;;;;5056664;28;20180;-52
2023/09/07 07:08:57;;;;;;;14.30;7.95;;;20.60;99.90;;;;;;5056662;28;20171;-50
2023/09/07 07:11:23;;;;;;;10.25;8.20;;;20.70;99.90;;;;;;5056532;28;20187;-51
2023/09/07 07:13:49;;;;;;;11.60;7.63;;;20.70;99.90;;;;;;5056778;28;20194;-51
2023/09/07 07:16:17;;;;;;;11.70;7.97;;;20.70;99.90;;;;;;5056682;28;20651;-48
2023/09/07 07:18:42;;;;;;;14.48;7.97;;;20.80;99.90;;;;;;5056624;28;20262;-51
2023/09/07 07:21:09;;;;;;;10.05;7.28;;;20.70;99.90;;;;;;5056302;28;20684;-51
2023/09/07 07:23:35;;;;;;;11.68;7.72;;;20.80;99.90;;;;;;5056325;28;20197;-48
2023/09/07 07:26:00;;;;;;;14.88;7.45;;;21.00;99.90;;;;;;5056340;28;20179;-49
2023/09/07 07:28:26;;;;;;;15.35;7.10;;;21.20;99.90;;;;;;5056821;28;20528;-50
2023/09/07 07:30:53;;;;;;;16.52;7.22;;;21.30;99.90;;;;;;5056228;28;20195;-51
2023/09/07 07:33:19;;;;;;;11.75;7.97;;;21.40;99.90;;;;;;5056289;28;20636;-50
2023/09/07 07:35:45;;;;;;;13.43;7.45;;;21.50;99.90;;;;;;5056312;28;20200;-47
2023/09/07 07:38:13;;;;;;;15.60;6.95;;;21.60;99.90;;;;;;5056239;28;20642;-52
2023/09/07 07:40:39;;;;;;;12.48;6.68;;;21.80;99.90;;;;;;5056025;28;20219;-51
2023/09/07 07:43:06;;;;;;;14.18;6.78;;;21.90;99.90;;;;;;5056492;28;20191;-52
2023/09/07 07:45:36;;;;;;;12.88;6.60;;;22.00;99.90;;;;;;5056166;28;20198;-50
2023/09/07 07:48:02;;;;;;;15.10;6.82;;;22.20;99.90;;;;;;5056059;28;20171;-49
2023/09/07 07:50:28;;;;;;;8.35;5.70;;;22.30;99.90;;;;;;5055942;28;20186;-49
2023/09/07 07:52:53;;;;;;;12.73;6.63;;;22.30;99.90;;;;;;5055892;28;20171;-52
2023/09/07 07:55:19;;;;;;;9.85;5.78;;;22.30;99.90;;;;;;5055856;28;20176;-52
2023/09/07 07:57:44;;;;;;;11.23;6.35;;;22.40;99.90;;;;;;5056055;28;20179;-48
2023/09/07 08:00:11;;;;;;;9.60;6.03;;;22.60;99.90;;;;;;5055756;28;20179;-50
2023/09/07 08:02:37;;;;;;;8.52;6.20;;;22.80;99.90;;;;;;5054506;28;20187;-50
2023/09/07 08:05:04;;;;;;;10.20;5.68;;;23.00;99.90;;;;;;5055679;28;20514;-48
2023/09/07 08:07:29;;;;;;;11.35;6.25;;;23.00;99.90;;;;;;5055471;28;20179;-48
2023/09/07 08:09:55;;;;;;;9.77;5.70;;;23.30;99.90;;;;;;5055733;28;20182;-48
2023/09/07 08:12:21;;;;;;;11.10;6.30;;;23.40;99.90;;;;;;5055469;28;20249;-47
2023/09/07 08:14:46;;;;;;;13.18;6.43;;;23.70;99.90;;;;;;5054939;28;20187;-51
2023/09/07 08:17:12;;;;;;;11.65;5.85;;;23.70;99.90;;;;;;5055600;28;20221;-48
2023/09/07 08:19:38;;;;;;;9.85;5.57;;;23.70;99.90;;;;;;5055329;28;20227;-52
2023/09/07 08:22:05;;;;;;;13.05;5.53;;;23.70;99.90;;;;;;5055196;28;20246;-49
2023/09/07 08:24:31;;;;;;;10.90;5.40;;;23.70;99.90;;;;;;5055469;28;20174;-50
2023/09/07 08:26:57;;;;;;;9.73;5.40;;;23.70;99.90;;;;;;5055389;28;20176;-52
2023/09/07 08:29:26;;;;;;;13.57;5.70;;;23.80;99.90;;;;;;5055313;28;20218;-51
2023/09/07 08:31:53;;;;;;;10.38;4.72;;;23.90;99.90;;;;;;5055185;28;20195;-51
2023/09/07 08:34:21;;;;;;;12.07;5.20;;;24.20;99.90;;;;;;5055093;28;20178;-48
2023/09/07 08:36:49;;;;;;;13.57;5.80;;;24.30;99.90;;;;;;5054959;28;20179;-48
2023/09/07 08:39:15;;;;;;;8.80;5.22;;;24.20;99.90;;;;;;5055171;28;20249;-53
2023/09/07 08:41:43;;;;;;;8.63;5.30;;;24.30;99.90;;;;;;5055116;28;20214;-53
2023/09/07 08:44:16;;;;;;;9.60;5.15;;;24.30;99.90;;;;;;5055039;28;20229;-52
2023/09/07 08:46:43;;;;;;;8.45;5.35;;;24.40;99.90;;;;;;5055167;28;20218;-48
2023/09/07 08:49:11;;;;;;;12.80;5.38;;;24.50;99.90;;;;;;5054867;28;20253;-48
2023/09/07 08:51:37;;;;;;;10.63;5.13;;;24.50;99.90;;;;;;5054835;28;20176;-49
2023/09/07 08:54:04;;;;;;;8.90;4.68;;;24.40;99.90;;;;;;5054869;28;20271;-48
2023/09/07 08:56:30;;;;;;;10.13;4.50;;;24.50;99.90;;;;;;5054790;28;20178;-54
2023/09/07 08:58:56;;;;;;;10.48;5.07;;;24.50;99.90;;;;;;5054697;28;20179;-49
2023/09/07 09:01:21;;;;;;;7.65;5.10;;;24.70;99.90;;;;;;5054530;28;20696;-48
2023/09/07 09:03:51;;;;;;;9.05;4.32;;;24.70;99.90;;;;;;5054452;28;20175;-51
2023/09/07 09:06:19;;;;;;;5.63;4.38;;;24.90;99.90;;;;;;5054605;28;20164;-49
2023/09/07 09:08:49;;;;;;;6.85;4.80;;;24.80;99.90;;;;;;5054848;28;20171;-48
2023/09/07 09:11:19;;;;;;;7.80;4.70;;;24.80;99.90;;;;;;5054690;28;20250;-51
2023/09/07 09:13:45;;;;;;;8.50;4.28;;;24.90;99.90;;;;;;5054612;28;20525;-49
2023/09/07 09:16:12;;;;;;;6.82;3.97;;;24.90;99.90;;;;;;5054349;28;20178;-49
2023/09/07 09:18:39;;;;;;;7.32;4.05;;;25.00;99.90;;;;;;5054150;28;20640;-50
2023/09/07 09:21:05;;;;;;;7.50;4.28;;;25.10;99.90;;;;;;5054254;28;20266;-50
2023/09/07 09:23:36;;;;;;;7.68;4.00;;;25.30;99.90;;;;;;5054303;28;20211;-51
2023/09/07 09:26:05;;;;;;;4.25;3.15;;;25.50;99.90;;;;;;5053272;28;20175;-50
2023/09/07 09:28:31;;;;;;;5.40;3.67;;;25.50;99.90;;;;;;5054143;28;20175;-52
2023/09/07 09:31:02;;;;;;;8.90;4.50;;;25.50;99.90;;;;;;5053892;28;20179;-53
2023/09/07 09:33:31;;;;;;;6.38;3.67;;;25.60;99.90;;;;;;5054135;28;20185;-55
2023/09/07 09:35:57;;;;;;;7.22;3.85;;;25.60;99.90;;;;;;5053987;28;20179;-50
2023/09/07 09:38:23;;;;;;;5.15;3.90;;;25.70;99.90;;;;;;5053790;28;20171;-51
2023/09/07 09:40:49;;;;;;;6.10;3.67;;;25.90;99.90;;;;;;5053757;28;20218;-51
2023/09/07 09:43:15;;;;;;;6.50;3.90;;;26.00;99.90;;;;;;5053770;28;20233;-52
2023/09/07 09:45:41;;;;;;;6.30;3.80;;;26.00;99.90;;;;;;5053687;28;20175;-51
2023/09/07 09:48:07;;;;;;;5.32;3.30;;;25.90;99.90;;;;;;5053851;28;20213;-51
2023/09/07 09:50:39;;;;;;;4.45;3.33;;;26.10;99.90;;;;;;5053536;28;20215;-53
2023/09/07 09:53:09;;;;;;;5.70;3.67;;;26.20;99.90;;;;;;5054118;28;20201;-53
2023/09/07 09:55:35;;;;;;;5.57;3.30;;;26.30;99.90;;;;;;5053716;28;20651;-53
2023/09/07 09:58:01;;;;;;;4.47;3.65;;;26.20;99.90;;;;;;5053520;28;20171;-51
2023/09/07 10:00:29;;;;;;;4.35;3.50;;;26.30;99.90;;;;;;5053647;28;20181;-52
2023/09/07 10:03:01;;;;;;;4.10;3.40;;;26.20;99.90;;;;;;5053594;28;20194;-53
2023/09/07 10:05:27;;;;;;;6.03;3.58;;;26.20;99.90;;;;;;5053415;28;20178;-53
2023/09/07 10:08:00;;;;;;;5.57;3.75;;;26.30;99.90;;;;;;5053445;28;20322;-52
2023/09/07 10:10:26;;;;;;;5.80;3.50;;;26.50;99.90;;;;;;5053467;28;20175;-48
2023/09/07 10:12:55;;;;;;;4.72;3.35;;;26.30;99.90;;;;;;5053275;28;20727;-53
2023/09/07 10:15:25;;;;;;;6.22;3.88;;;26.60;99.90;;;;;;5053508;28;20168;-53
2023/09/07 10:18:02;;;;;;;6.82;3.40;;;26.80;99.90;;;;;;5053321;28;20179;-51
2023/09/07 10:20:27;;;;;;;8.52;3.45;;;26.90;99.90;;;;;;5053135;28;20276;-53
2023/09/07 10:23:05;;;;;;;8.60;3.50;;;26.80;99.90;;;;;;5053175;28;20176;-52
2023/09/07 10:25:32;;;;;;;6.35;3.60;;;26.90;99.90;;;;;;5053399;28;20171;-53
2023/09/07 10:27:59;;;;;;;7.65;3.80;;;27.00;99.90;;;;;;5053220;28;20198;-53
2023/09/07 10:30:25;;;;;;;5.97;3.55;;;27.00;99.90;;;;;;5053124;28;20183;-52
2023/09/07 10:32:51;;;;;;;6.90;3.50;;;27.10;99.90;;;;;;5053501;28;20171;-53
2023/09/07 10:35:19;;;;;;;7.78;3.60;;;27.30;99.90;;;;;;5053033;28;20187;-52
2023/09/07 10:37:48;;;;;;;8.13;4.75;;;27.20;99.90;;;;;;5054039;28;20171;-52
2023/09/07 10:40:25;;;;;;;7.97;3.50;;;27.20;99.90;;;;;;5057308;28;20175;-52
2023/09/07 10:43:02;;;;;;;8.20;3.08;;;27.40;99.90;;;;;;5057182;28;20183;-52
2023/09/07 10:45:28;;;;;;;5.22;3.17;;;27.50;99.90;;;;;;5057146;28;20592;-52
2023/09/07 10:47:53;;;;;;;7.03;3.53;;;27.60;99.90;;;;;;5057057;28;20187;-51
2023/09/07 10:50:19;;;;;;;5.15;3.35;;;27.60;99.90;;;;;;5056975;28;20176;-52
2023/09/07 10:52:45;;;;;;;3.90;2.75;;;27.80;99.90;;;;;;5057212;28;20179;-50
2023/09/07 10:55:11;;;;;;;4.13;2.90;;;27.80;99.90;;;;;;5057126;28;20171;-53
2023/09/07 10:57:47;;;;;;;5.05;3.72;;;27.80;99.90;;;;;;5056868;28;20574;-51
2023/09/07 11:00:14;;;;;;;5.35;3.20;;;27.90;99.90;;;;;;5056939;28;20170;-52
2023/09/07 11:02:41;;;;;;;6.32;3.42;;;27.90;99.90;;;;;;5056615;28;20242;-53
2023/09/07 11:05:07;;;;;;;5.68;3.45;;;28.00;99.90;;;;;;5056956;28;20233;-51
2023/09/07 11:07:34;;;;;;;4.63;3.40;;;27.80;99.90;;;;;;5056885;28;20175;-52
2023/09/07 11:10:00;;;;;;;5.45;3.22;;;28.00;99.90;;;;;;5056784;28;20176;-54
2023/09/07 11:12:26;;;;;;;4.45;3.05;;;27.90;99.90;;;;;;5056685;28;20225;-50
2023/09/07 11:14:53;;;;;;;4.20;2.80;;;27.70;99.90;;;;;;5056648;28;20640;-48
2023/09/07 11:17:18;;;;;;;6.20;3.10;;;27.80;99.90;;;;;;5056470;28;20168;-52
2023/09/07 11:19:44;;;;;;;5.93;3.58;;;28.00;99.90;;;;;;5056460;28;20235;-50
2023/09/07 11:22:10;;;;;;;5.30;3.22;;;27.80;99.90;;;;;;5056704;28;20199;-53
2023/09/07 11:24:36;;;;;;;3.40;3.08;;;28.00;99.90;;;;;;5056326;28;20663;-48
2023/09/07 11:27:05;;;;;;;4.60;2.75;;;28.20;99.90;;;;;;5056410;28;20175;-49
2023/09/07 11:29:33;;;;;;;5.72;3.10;;;28.20;99.90;;;;;;5056388;28;20637;-49
2023/09/07 11:32:09;;;;;;;6.30;2.90;;;28.30;99.90;;;;;;5056178;28;20209;-53
2023/09/07 11:34:35;;;;;;;5.50;3.38;;;28.40;99.90;;;;;;5056470;28;20171;-50
2023/09/07 11:37:03;;;;;;;4.78;3.10;;;28.30;99.40;;;;;;5056361;28;20175;-51
2023/09/07 11:39:29;;;;;;;7.45;3.28;;;28.20;99.90;;;;;;5056122;28;20175;-48
2023/09/07 11:41:54;;;;;;;6.72;3.20;;;28.00;99.90;;;;;;5056009;28;20206;-53
2023/09/07 11:44:20;;;;;;;4.07;3.13;;;28.20;99.90;;;;;;5055965;28;20191;-52
2023/09/07 11:46:47;;;;;;;4.40;2.90;;;28.30;99.80;;;;;;5055914;28;20302;-53
2023/09/07 11:49:13;;;;;;;6.68;3.25;;;28.30;99.90;;;;;;5054961;28;20179;-52
2023/09/07 11:51:39;;;;;;;3.22;2.85;;;28.20;99.20;;;;;;5056006;28;20187;-53
2023/09/07 11:54:05;;;;;;;4.85;2.70;;;28.20;99.40;;;;;;5055785;28;20181;-50
2023/09/07 11:56:31;;;;;;;5.32;3.10;;;28.20;99.70;;;;;;5055995;28;20191;-51
2023/09/07 11:58:57;;;;;;;3.08;2.78;;;28.10;99.70;;;;;;5055703;28;20244;-52
2023/09/07 12:01:23;;;;;;;10.55;3.35;;;28.20;99.60;;;;;;5055577;28;20203;-51
2023/09/07 12:03:48;;;;;;;4.05;2.67;;;28.20;99.30;;;;;;5055719;28;20182;-53
2023/09/07 12:06:15;;;;;;;4.38;2.95;;;28.40;99.80;;;;;;5055771;28;20640;-51
2023/09/07 12:08:57;;;;;;;3.47;2.83;;;28.30;98.80;;;;;;5055631;28;20201;-51
2023/09/07 12:11:23;;;;;;;5.68;3.00;;;28.10;98.60;;;;;;5055589;28;20175;-51
2023/09/07 12:13:48;;;;;;;4.10;2.80;;;28.20;99.20;;;;;;5055390;28;20505;-50
2023/09/07 12:16:14;;;;;;;3.03;2.53;;;28.30;99.30;;;;;;5055638;28;20178;-53
2023/09/07 12:18:40;;;;;;;5.32;2.80;;;28.40;99.90;;;;;;5055528;28;20262;-54
2023/09/07 12:21:06;;;;;;;5.43;2.33;;;28.40;99.70;;;;;;5055101;28;20792;-52
2023/09/07 12:23:31;;;;;;;4.88;2.65;;;28.60;99.60;;;;;;5055329;28;20171;-53
2023/09/07 12:25:57;;;;;;;3.53;2.50;;;28.60;98.80;;;;;;5055268;28;20195;-50
2023/09/07 12:28:22;;;;;;;3.97;2.80;;;28.50;99.40;;;;;;5055126;28;20207;-52
2023/09/07 12:30:48;;;;;;;5.03;2.60;;;28.50;98.90;;;;;;5055334;28;20190;-50
2023/09/07 12:33:14;;;;;;;5.38;2.67;;;28.50;98.90;;;;;;5055266;28;20597;-52
2023/09/07 12:35:40;;;;;;;4.80;2.70;;;28.50;99.80;;;;;;5055060;28;20167;-51
2023/09/07 12:38:07;;;;;;;4.32;2.97;;;28.60;98.40;;;;;;5055096;28;20167;-51
2023/09/07 12:40:32;;;;;;;4.57;2.60;;;28.70;98.50;;;;;;5037408;28;20202;-51
2023/09/07 12:42:58;;;;;;;3.25;2.47;;;28.60;97.70;;;;;;5054860;28;20203;-49